createdAt,value
2023-01-07T00:01:42.662Z,4.40
2023-01-07T00:04:15.611Z,4.55
2023-01-07T00:06:49.659Z,4.50
2023-01-07T00:09:21.115Z,4.32
2023-01-07T00:11:52.556Z,4.20
2023-01-07T00:14:23.983Z,4.15
2023-01-07T00:16:55.438Z,4.17
2023-01-07T00:19:26.919Z,4.03
2023-01-07T00:21:58.352Z,4.03
2023-01-07T00:24:29.783Z,4.03
2023-01-07T00:27:01.208Z,3.80
2023-01-07T00:29:32.678Z,4.10
2023-01-07T00:32:04.318Z,4.43
2023-01-07T00:34:35.716Z,4.00
2023-01-07T00:37:07.118Z,4.40
2023-01-07T00:39:39.638Z,4.20
2023-01-07T00:42:12.641Z,3.90
2023-01-07T00:44:44.029Z,3.65
2023-01-07T00:47:15.441Z,3.70
2023-01-07T00:49:46.874Z,3.33
2023-01-07T00:52:18.315Z,3.53
2023-01-07T00:54:49.714Z,3.72
2023-01-07T00:57:21.137Z,3.30
2023-01-07T00:59:52.584Z,3.33
2023-01-07T01:02:24.048Z,3.05
2023-01-07T01:04:55.502Z,3.30
2023-01-07T01:07:26.978Z,3.03
2023-01-07T01:09:58.410Z,3.67
2023-01-07T01:12:29.851Z,3.50
2023-01-07T01:15:04.507Z,3.33
2023-01-07T01:17:36.111Z,3.88
2023-01-07T01:20:10.920Z,3.58
2023-01-07T01:22:43.049Z,3.67
2023-01-07T01:25:14.785Z,3.50
2023-01-07T01:27:46.308Z,3.17
2023-01-07T01:30:17.873Z,3.40
2023-01-07T01:32:49.291Z,3.47
2023-01-07T01:35:20.715Z,3.78
2023-01-07T01:37:52.142Z,3.45
2023-01-07T01:40:28.954Z,3.63
2023-01-07T01:43:00.545Z,4.00
2023-01-07T01:45:32.050Z,3.50
2023-01-07T01:48:07.458Z,3.60
2023-01-07T01:50:45.553Z,3.58
2023-01-07T01:53:22.119Z,3.80
2023-01-07T01:56:19.554Z,3.50
2023-01-07T01:58:56.874Z,3.58
2023-01-07T02:01:28.684Z,3.50
2023-01-07T02:04:03.778Z,3.30
2023-01-07T02:06:40.078Z,4.32
2023-01-07T02:09:12.640Z,3.83
2023-01-07T02:12:08.995Z,3.70
2023-01-07T02:14:57.667Z,3.50
2023-01-07T02:17:38.145Z,4.33
2023-01-07T02:20:25.616Z,4.38
2023-01-07T02:23:35.919Z,3.88
2023-01-07T02:26:13.442Z,4.07
2023-01-07T02:29:08.971Z,3.90
2023-01-07T02:31:46.187Z,3.58
2023-01-07T02:34:51.668Z,3.90
2023-01-07T02:37:34.955Z,3.78
2023-01-07T02:40:49.875Z,3.53
2023-01-07T02:43:52.590Z,3.53
2023-01-07T02:46:32.583Z,3.60
2023-01-07T02:49:15.730Z,3.25
2023-01-07T02:51:48.059Z,3.10
2023-01-07T02:54:25.642Z,3.33
2023-01-07T02:57:48.058Z,3.42
2023-01-07T03:00:32.145Z,3.55
2023-01-07T03:03:03.546Z,3.40
2023-01-07T03:05:40.668Z,3.42
2023-01-07T03:08:16.920Z,3.22
2023-01-07T03:11:01.624Z,3.38
2023-01-07T03:13:41.515Z,3.27
2023-01-07T03:16:24.590Z,3.15
2023-01-07T03:19:03.051Z,3.47
2023-01-07T03:21:34.484Z,3.63
2023-01-07T03:24:08.026Z,3.60
2023-01-07T03:26:47.128Z,3.87
2023-01-07T03:29:20.034Z,3.27
2023-01-07T03:31:56.245Z,3.50
2023-01-07T03:34:29.379Z,3.43
2023-01-07T03:37:05.050Z,4.20
2023-01-07T03:39:39.396Z,3.95
2023-01-07T03:42:12.731Z,4.10
2023-01-07T03:44:44.276Z,4.18
2023-01-07T03:47:15.999Z,3.78
2023-01-07T03:49:47.404Z,3.67
2023-01-07T03:52:18.854Z,3.90
2023-01-07T03:54:50.273Z,3.60
2023-01-07T03:57:21.732Z,3.80
2023-01-07T03:59:53.179Z,3.70
2023-01-07T04:02:25.107Z,3.90
2023-01-07T04:04:56.509Z,4.13
2023-01-07T04:07:27.995Z,4.00
2023-01-07T04:09:59.470Z,3.90
2023-01-07T04:12:30.914Z,4.17
2023-01-07T04:15:03.472Z,3.83
2023-01-07T04:17:34.853Z,4.45
2023-01-07T04:20:06.922Z,4.05
2023-01-07T04:22:38.374Z,4.50
2023-01-07T04:25:09.792Z,4.13
2023-01-07T04:27:41.248Z,4.30
2023-01-07T04:30:12.970Z,4.53
2023-01-07T04:32:44.402Z,4.47
2023-01-07T04:35:15.905Z,4.35
2023-01-07T04:37:47.323Z,4.07
2023-01-07T04:40:18.735Z,4.40
2023-01-07T04:42:50.136Z,4.45
2023-01-07T04:45:21.606Z,5.18
2023-01-07T04:47:56.401Z,4.68
2023-01-07T04:50:28.183Z,5.32
2023-01-07T04:52:59.643Z,5.50
2023-01-07T04:55:31.071Z,5.45
2023-01-07T04:58:02.469Z,5.80
2023-01-07T05:00:33.865Z,5.75
2023-01-07T05:03:05.301Z,6.20
2023-01-07T05:05:36.742Z,6.37
2023-01-07T05:08:08.218Z,6.32
2023-01-07T05:10:39.741Z,6.72
2023-01-07T05:13:18.463Z,6.40
2023-01-07T05:15:50.591Z,6.65
2023-01-07T05:18:22.035Z,5.80
2023-01-07T05:20:53.492Z,6.43
2023-01-07T05:23:24.931Z,7.50
2023-01-07T05:25:56.366Z,7.17
2023-01-07T05:28:27.755Z,6.95
2023-01-07T05:30:59.893Z,6.93
2023-01-07T05:33:33.269Z,7.00
2023-01-07T05:36:04.816Z,6.63
2023-01-07T05:38:36.224Z,6.78
2023-01-07T05:41:07.711Z,6.93
2023-01-07T05:43:39.133Z,6.72
2023-01-07T05:46:10.724Z,6.13
2023-01-07T05:48:42.287Z,6.30
2023-01-07T05:51:13.726Z,6.53
2023-01-07T05:53:45.196Z,6.75
2023-01-07T05:56:16.595Z,6.47
2023-01-07T05:58:48.066Z,5.63
2023-01-07T06:01:19.598Z,5.20
2023-01-07T06:03:51.177Z,5.82
2023-01-07T06:06:22.638Z,5.33
2023-01-07T06:08:54.115Z,5.68
2023-01-07T06:11:25.556Z,5.30
2023-01-07T06:13:56.969Z,5.35
2023-01-07T06:16:28.499Z,5.13
2023-01-07T06:18:59.898Z,5.03
2023-01-07T06:21:31.385Z,4.88
2023-01-07T06:24:02.852Z,4.78
2023-01-07T06:26:34.266Z,4.60
2023-01-07T06:29:05.669Z,4.55
2023-01-07T06:31:37.270Z,4.30
2023-01-07T06:34:08.848Z,4.28
2023-01-07T06:36:40.271Z,3.83
2023-01-07T06:39:12.000Z,3.90
2023-01-07T06:41:43.456Z,3.83
2023-01-07T06:44:15.014Z,3.57
2023-01-07T06:46:46.460Z,3.42
2023-01-07T06:49:17.960Z,3.67
2023-01-07T06:51:49.398Z,3.45
2023-01-07T06:54:20.838Z,3.08
2023-01-07T06:56:52.249Z,3.43
2023-01-07T06:59:23.665Z,3.42
2023-01-07T07:01:55.171Z,3.00
2023-01-07T07:04:26.666Z,3.00
2023-01-07T07:06:58.128Z,2.95
2023-01-07T07:09:29.584Z,2.50
2023-01-07T07:12:00.977Z,2.88
2023-01-07T07:14:32.543Z,2.60
2023-01-07T07:17:05.282Z,2.80
2023-01-07T07:19:36.732Z,2.45
2023-01-07T07:22:08.188Z,2.30
2023-01-07T07:24:39.607Z,2.00
2023-01-07T07:27:11.049Z,1.67
2023-01-07T07:29:42.477Z,2.20
2023-01-07T07:32:13.936Z,1.98
2023-01-07T07:34:45.380Z,2.00
2023-01-07T07:37:16.822Z,1.95
2023-01-07T07:39:48.329Z,1.88
2023-01-07T07:42:19.820Z,1.80
2023-01-07T07:44:51.219Z,1.60
2023-01-07T07:47:22.738Z,1.67
2023-01-07T07:49:54.147Z,1.60
2023-01-07T07:52:25.645Z,1.55
2023-01-07T07:54:57.043Z,1.70
2023-01-07T07:57:48.447Z,1.40
2023-01-07T08:00:20.069Z,1.80
2023-01-07T08:02:51.580Z,1.30
2023-01-07T08:05:23.023Z,1.30
2023-01-07T08:07:54.446Z,1.33
2023-01-07T08:10:29.111Z,1.40
2023-01-07T08:13:00.833Z,1.30
2023-01-07T08:15:32.681Z,1.25
2023-01-07T08:18:09.912Z,1.15
2023-01-07T08:20:41.395Z,1.40
2023-01-07T08:23:12.837Z,1.08
2023-01-07T08:25:44.249Z,1.63
2023-01-07T08:28:15.744Z,1.40
2023-01-07T08:30:47.194Z,1.50
2023-01-07T08:33:18.659Z,1.40
2023-01-07T08:35:50.166Z,1.50
2023-01-07T08:38:21.612Z,1.20
2023-01-07T08:40:53.103Z,1.17
2023-01-07T08:43:24.541Z,1.60
2023-01-07T08:45:56.239Z,1.50
2023-01-07T08:48:27.810Z,1.42
2023-01-07T08:50:59.219Z,1.77
2023-01-07T08:53:30.650Z,1.58
2023-01-07T08:56:02.150Z,1.67
2023-01-07T08:58:33.538Z,1.50
2023-01-07T09:01:06.806Z,1.40
2023-01-07T09:03:38.673Z,1.23
2023-01-07T09:06:10.195Z,1.30
2023-01-07T09:08:41.613Z,1.50
2023-01-07T09:11:13.073Z,1.50
2023-01-07T09:13:44.481Z,1.23
2023-01-07T09:16:16.004Z,1.10
2023-01-07T09:18:47.464Z,0.73
2023-01-07T09:21:18.909Z,1.00
2023-01-07T09:23:50.403Z,0.98
2023-01-07T09:26:21.798Z,0.80
2023-01-07T09:28:53.210Z,0.93
2023-01-07T09:31:24.604Z,0.82
2023-01-07T09:33:56.058Z,0.70
2023-01-07T09:36:27.709Z,0.70
2023-01-07T09:38:59.122Z,0.85
2023-01-07T09:41:42.902Z,0.70
2023-01-07T09:44:32.544Z,0.93
2023-01-07T09:47:06.328Z,0.80
2023-01-07T09:49:37.951Z,0.90
2023-01-07T09:52:18.246Z,1.00
2023-01-07T09:54:55.330Z,0.70
2023-01-07T09:57:26.770Z,0.90
2023-01-07T09:59:58.217Z,0.80
2023-01-07T10:03:20.820Z,0.80
2023-01-07T10:06:01.059Z,1.00
2023-01-07T10:09:14.678Z,0.82
2023-01-07T10:12:00.164Z,0.90
2023-01-07T10:14:42.758Z,0.90
2023-01-07T10:17:23.045Z,0.65
2023-01-07T10:20:37.775Z,0.80
2023-01-07T10:23:13.970Z,0.80
2023-01-07T10:25:53.318Z,0.82
2023-01-07T10:28:36.749Z,0.98
2023-01-07T10:31:21.588Z,0.90
2023-01-07T10:33:53.512Z,0.82
2023-01-07T10:36:31.668Z,1.08
2023-01-07T10:39:13.311Z,0.80
2023-01-07T10:42:10.000Z,0.90
2023-01-07T10:45:10.043Z,0.93
2023-01-07T10:48:00.103Z,0.90
2023-01-07T10:50:37.734Z,1.02
2023-01-07T10:53:37.326Z,0.88
2023-01-07T10:56:20.177Z,0.80
2023-01-07T10:58:51.786Z,0.70
2023-01-07T11:01:23.227Z,0.70
2023-01-07T11:03:57.321Z,0.73
2023-01-07T11:06:44.368Z,0.50
2023-01-07T11:09:22.725Z,0.60
2023-01-07T11:11:57.394Z,0.60
2023-01-07T11:14:32.822Z,0.50
2023-01-07T11:17:10.646Z,0.77
2023-01-07T11:19:47.607Z,0.65
2023-01-07T11:22:30.373Z,0.80
2023-01-07T11:25:21.095Z,0.90
2023-01-07T11:27:52.616Z,0.77
2023-01-07T11:30:30.856Z,0.60
2023-01-07T11:33:06.921Z,0.70
2023-01-07T11:35:38.531Z,0.67
2023-01-07T11:38:27.379Z,0.88
2023-01-07T11:41:00.832Z,0.80
2023-01-07T11:43:39.269Z,0.90
2023-01-07T11:46:19.105Z,1.00
2023-01-07T11:48:55.744Z,0.80
2023-01-07T11:51:37.919Z,0.93
2023-01-07T11:54:20.951Z,1.00
2023-01-07T11:56:54.848Z,0.80
2023-01-07T11:59:29.462Z,1.17
2023-01-07T12:02:01.063Z,1.02
2023-01-07T12:04:36.839Z,0.90
2023-01-07T12:07:15.135Z,1.00
2023-01-07T12:09:46.842Z,1.25
2023-01-07T12:12:24.787Z,0.98
2023-01-07T12:14:56.692Z,0.82
2023-01-07T12:17:31.240Z,0.95
2023-01-07T12:20:39.799Z,1.00
2023-01-07T12:23:26.572Z,1.20
2023-01-07T12:26:15.123Z,0.90
2023-01-07T12:29:01.298Z,1.20
2023-01-07T12:31:56.382Z,1.00
2023-01-07T12:34:47.922Z,1.10
2023-01-07T12:37:43.381Z,1.13
2023-01-07T12:40:14.788Z,1.30
2023-01-07T12:42:54.919Z,1.25
2023-01-07T12:45:32.752Z,1.10
2023-01-07T12:48:10.285Z,1.20
2023-01-07T12:50:46.359Z,1.38
2023-01-07T12:53:41.678Z,1.30
2023-01-07T12:56:23.759Z,1.10
2023-01-07T12:59:45.578Z,1.30
2023-01-07T13:02:29.226Z,1.20
2023-01-07T13:05:25.999Z,1.23
2023-01-07T13:08:15.218Z,1.10
2023-01-07T13:10:52.919Z,1.25
2023-01-07T13:13:33.091Z,1.30
2023-01-07T13:16:13.644Z,1.40
2023-01-07T13:18:45.123Z,1.15
2023-01-07T13:21:18.338Z,1.33
2023-01-07T13:24:03.445Z,1.33
2023-01-07T13:26:49.569Z,1.40
2023-01-07T13:29:58.064Z,1.30
2023-01-07T13:33:04.835Z,1.30
2023-01-07T13:35:48.306Z,1.10
2023-01-07T13:38:34.224Z,1.20
2023-01-07T13:41:23.925Z,1.20
2023-01-07T13:44:12.414Z,1.30
2023-01-07T13:46:46.614Z,1.08
2023-01-07T13:49:29.930Z,1.15
2023-01-07T13:52:22.028Z,1.20
2023-01-07T13:54:59.414Z,1.25
2023-01-07T13:57:30.832Z,1.40
2023-01-07T14:00:05.639Z,0.95
2023-01-07T14:02:56.366Z,1.25
2023-01-07T14:05:29.748Z,1.25
2023-01-07T14:08:03.619Z,1.40
2023-01-07T14:10:37.485Z,1.00
2023-01-07T14:13:19.648Z,1.48
2023-01-07T14:16:00.084Z,1.95
2023-01-07T14:18:31.539Z,1.10
2023-01-07T14:21:40.696Z,1.10
2023-01-07T14:24:18.658Z,1.20
2023-01-07T14:27:02.404Z,1.30
2023-01-07T14:29:41.843Z,1.35
2023-01-07T14:32:24.805Z,1.30
2023-01-07T14:35:07.654Z,1.30
2023-01-07T14:37:42.329Z,1.10
2023-01-07T14:40:25.949Z,1.70
2023-01-07T14:42:58.554Z,1.20
2023-01-07T14:45:42.132Z,1.20
2023-01-07T14:48:16.633Z,1.38
2023-01-07T14:51:33.816Z,1.30
2023-01-07T14:54:17.004Z,1.10
2023-01-07T14:57:11.108Z,1.20
2023-01-07T15:00:00.836Z,1.10
2023-01-07T15:03:15.892Z,1.20
2023-01-07T15:06:00.684Z,1.23
2023-01-07T15:08:44.744Z,1.00
2023-01-07T15:11:24.919Z,1.00
2023-01-07T15:14:03.088Z,1.40
2023-01-07T15:16:36.905Z,1.13
2023-01-07T15:19:09.437Z,1.25
2023-01-07T15:21:40.826Z,1.23
2023-01-07T15:24:18.463Z,1.40
2023-01-07T15:26:55.968Z,1.35
2023-01-07T15:29:45.459Z,1.52
2023-01-07T15:32:26.098Z,1.40
2023-01-07T15:34:58.053Z,1.30
2023-01-07T15:37:29.494Z,1.30
2023-01-07T15:40:01.009Z,1.50
2023-01-07T15:42:32.460Z,1.48
2023-01-07T15:45:04.733Z,1.40
2023-01-07T15:47:37.878Z,1.52
2023-01-07T15:50:31.876Z,1.50
2023-01-07T15:53:18.972Z,1.70
2023-01-07T15:56:03.827Z,1.63
2023-01-07T15:58:39.644Z,1.80
2023-01-07T16:01:24.914Z,1.80
2023-01-07T16:03:57.434Z,1.80
2023-01-07T16:06:31.974Z,1.90
2023-01-07T16:09:16.894Z,1.80
2023-01-07T16:11:49.803Z,1.55
2023-01-07T16:14:26.316Z,1.52
2023-01-07T16:17:11.845Z,1.70
2023-01-07T16:19:43.297Z,1.73
2023-01-07T16:22:21.371Z,1.80
2023-01-07T16:24:53.668Z,1.70
2023-01-07T16:27:30.654Z,1.80
2023-01-07T16:30:02.563Z,2.00
2023-01-07T16:32:34.159Z,1.80
2023-01-07T16:35:17.478Z,1.90
2023-01-07T16:37:49.382Z,1.90
2023-01-07T16:40:34.035Z,2.20
2023-01-07T16:43:40.719Z,2.10
2023-01-07T16:46:21.903Z,2.30
2023-01-07T16:49:11.743Z,2.60
2023-01-07T16:51:47.146Z,3.05
2023-01-07T16:54:25.473Z,3.17
2023-01-07T16:57:26.241Z,2.42
2023-01-07T17:00:00.024Z,3.20
2023-01-07T17:02:40.110Z,2.55
2023-01-07T17:05:29.905Z,2.92
2023-01-07T17:08:04.711Z,3.87
2023-01-07T17:10:39.110Z,3.33
2023-01-07T17:13:13.541Z,2.88
2023-01-07T17:15:45.076Z,3.30
2023-01-07T17:18:16.519Z,4.67
2023-01-07T17:20:51.116Z,2.90
2023-01-07T17:23:25.263Z,3.45
2023-01-07T17:26:04.575Z,3.20
2023-01-07T17:28:46.428Z,3.30
2023-01-07T17:31:18.365Z,3.17
2023-01-07T17:33:51.511Z,3.10
2023-01-07T17:36:25.512Z,3.37
2023-01-07T17:38:56.950Z,3.20
2023-01-07T17:41:28.395Z,3.10
2023-01-07T17:44:01.117Z,3.13
2023-01-07T17:46:32.568Z,3.08
2023-01-07T17:49:04.193Z,2.60
2023-01-07T17:51:39.232Z,3.00
2023-01-07T17:54:19.406Z,3.33
2023-01-07T17:56:51.867Z,3.20
2023-01-07T17:59:23.560Z,3.33
2023-01-07T18:01:55.474Z,3.13
2023-01-07T18:04:27.038Z,3.20
2023-01-07T18:06:58.471Z,3.20
2023-01-07T18:09:29.840Z,2.92
2023-01-07T18:12:01.282Z,2.90
2023-01-07T18:14:32.820Z,11.23
2023-01-07T18:17:04.337Z,3.90
2023-01-07T18:19:35.747Z,2.73
2023-01-07T18:22:07.185Z,2.55
2023-01-07T18:24:38.643Z,3.00
2023-01-07T18:27:17.034Z,3.10
2023-01-07T18:29:48.494Z,2.80
2023-01-07T18:32:19.943Z,3.20
2023-01-07T18:34:51.353Z,3.70
2023-01-07T18:37:22.763Z,2.90
2023-01-07T18:39:54.365Z,3.03
2023-01-07T18:42:25.801Z,2.90
2023-01-07T18:44:57.325Z,5.22
2023-01-07T18:47:28.775Z,2.88
2023-01-07T18:50:00.348Z,3.35
2023-01-07T18:52:31.818Z,3.70
2023-01-07T18:55:03.411Z,4.78
2023-01-07T18:57:34.919Z,4.60
2023-01-07T19:00:07.140Z,3.63
2023-01-07T19:02:38.908Z,4.20
2023-01-07T19:05:10.717Z,3.83
2023-01-07T19:07:42.350Z,3.80
2023-01-07T19:10:13.824Z,4.03
2023-01-07T19:12:45.234Z,3.50
2023-01-07T19:15:17.212Z,3.28
2023-01-07T19:17:48.662Z,3.63
2023-01-07T19:20:20.102Z,3.78
2023-01-07T19:22:51.534Z,4.10
2023-01-07T19:25:22.927Z,9.73
2023-01-07T19:27:54.365Z,8.52
2023-01-07T19:30:25.817Z,5.03
2023-01-07T19:32:58.775Z,3.58
2023-01-07T19:35:30.279Z,3.55
2023-01-07T19:38:01.741Z,3.50
2023-01-07T19:40:33.213Z,3.53
2023-01-07T19:43:04.635Z,3.53
2023-01-07T19:45:36.253Z,3.40
2023-01-07T19:48:07.729Z,3.58
2023-01-07T19:50:39.191Z,3.85
2023-01-07T19:53:10.704Z,5.60
2023-01-07T19:55:44.411Z,11.47
2023-01-07T19:58:15.915Z,23.17
2023-01-07T20:00:47.350Z,11.93
2023-01-07T20:03:18.807Z,12.20
2023-01-07T20:05:50.218Z,16.17
2023-01-07T20:08:21.669Z,55.60
2023-01-07T20:10:57.804Z,10.65
2023-01-07T20:13:31.158Z,25.10
2023-01-07T20:16:20.559Z,27.50
2023-01-07T20:18:54.458Z,20.48
2023-01-07T20:21:26.369Z,12.38
2023-01-07T20:23:58.180Z,16.43
2023-01-07T20:26:35.258Z,9.93
2023-01-07T20:29:06.788Z,8.52
2023-01-07T20:31:38.715Z,6.55
2023-01-07T20:34:10.563Z,10.00
2023-01-07T20:36:42.016Z,12.85
2023-01-07T20:39:13.506Z,10.95
2023-01-07T20:41:44.926Z,8.68
2023-01-07T20:44:16.375Z,8.83
2023-01-07T20:46:47.794Z,5.28
2023-01-07T20:49:19.178Z,5.00
2023-01-07T20:51:51.070Z,10.52
2023-01-07T20:54:22.523Z,5.35
2023-01-07T20:56:54.010Z,13.25
2023-01-07T20:59:25.454Z,10.48
2023-01-07T21:01:57.071Z,10.23
2023-01-07T21:04:28.538Z,10.23
2023-01-07T21:07:00.438Z,7.55
2023-01-07T21:09:31.975Z,6.10
2023-01-07T21:12:03.647Z,16.10
2023-01-07T21:14:36.004Z,9.13
2023-01-07T21:17:07.450Z,8.07
2023-01-07T21:19:38.940Z,6.60
2023-01-07T21:22:10.931Z,15.60
2023-01-07T21:24:42.377Z,12.48
2023-01-07T21:27:13.767Z,7.65
2023-01-07T21:29:45.180Z,14.80
2023-01-07T21:32:16.977Z,13.18
2023-01-07T21:34:48.457Z,9.75
2023-01-07T21:37:19.883Z,10.57
2023-01-07T21:39:51.281Z,12.63
2023-01-07T21:42:22.670Z,10.27
2023-01-07T21:44:54.127Z,23.27
2023-01-07T21:47:25.558Z,14.73
2023-01-07T21:49:56.957Z,12.13
2023-01-07T21:52:28.841Z,9.55
2023-01-07T21:55:00.354Z,6.65
2023-01-07T21:57:31.799Z,11.05
2023-01-07T22:00:05.552Z,11.60
2023-01-07T22:02:37.086Z,9.77
2023-01-07T22:05:08.988Z,11.40
2023-01-07T22:07:40.410Z,14.32
2023-01-07T22:10:11.846Z,27.88
2023-01-07T22:12:43.344Z,90.78
2023-01-07T22:15:14.899Z,26.03
2023-01-07T22:17:46.759Z,23.48
2023-01-07T22:20:18.299Z,7.93
2023-01-07T22:22:49.703Z,10.25
2023-01-07T22:25:21.153Z,5.13
2023-01-07T22:27:58.353Z,5.15
2023-01-07T22:30:32.992Z,3.58
2023-01-07T22:33:04.411Z,4.00
2023-01-07T22:35:35.971Z,2.83
2023-01-07T22:38:07.827Z,3.60
2023-01-07T22:40:39.969Z,3.92
2023-01-07T22:43:14.621Z,3.40
2023-01-07T22:45:58.657Z,3.55
2023-01-07T22:48:33.448Z,8.43
2023-01-07T22:51:13.926Z,47.50
2023-01-07T22:53:46.724Z,48.78
2023-01-07T22:56:18.830Z,22.02
2023-01-07T22:58:50.270Z,6.50
2023-01-07T23:01:21.727Z,5.97
2023-01-07T23:03:53.207Z,7.35
2023-01-07T23:06:24.625Z,8.05
2023-01-07T23:08:56.057Z,7.15
2023-01-07T23:11:27.475Z,7.40
2023-01-07T23:13:59.520Z,8.05
2023-01-07T23:16:31.050Z,12.18
2023-01-07T23:19:02.526Z,8.52
2023-01-07T23:21:34.016Z,12.07
2023-01-07T23:24:05.568Z,9.93
2023-01-07T23:26:37.113Z,13.13
2023-01-07T23:29:08.565Z,12.90
2023-01-07T23:31:40.097Z,9.00
2023-01-07T23:34:11.729Z,14.90
2023-01-07T23:36:43.195Z,23.65
2023-01-07T23:39:14.689Z,15.10
2023-01-07T23:41:46.137Z,14.93
2023-01-07T23:44:17.601Z,13.75
2023-01-07T23:46:49.063Z,11.95
2023-01-07T23:49:20.502Z,9.77
2023-01-07T23:51:51.980Z,19.85
2023-01-07T23:54:23.440Z,17.63
2023-01-07T23:56:54.890Z,6.53
2023-01-07T23:59:26.356Z,86.88
